Time;durP1;ratioP1;P1;durP2;ratioP2;P2;SDS_P1;SDS_P2;PMS_P1;PMS_P2;Temp;Humidity;BMP_temperature;BMP_pressure;BME280_temperature;BME280_humidity;BME280_pressure;Samples;Min_cycle;Max_cycle;Signal;HPM_P1;HPM_P2
2021/08/26 00:00:18;;;;;;;9.00;2.20;;;13.70;85.30;;;;;;6307201;22;20034;-76
2021/08/26 00:05:47;;;;;;;4.53;1.98;;;13.80;85.00;;;;;;6286279;22;20026;-75
2021/08/26 00:08:15;;;;;;;6.47;2.17;;;13.90;84.70;;;;;;6314171;22;20019;-76
2021/08/26 00:10:43;;;;;;;5.60;1.83;;;13.90;84.60;;;;;;6288643;22;20018;-77
2021/08/26 00:13:11;;;;;;;4.72;1.90;;;13.90;84.70;;;;;;6326088;22;20046;-77
2021/08/26 00:15:40;;;;;;;10.50;2.30;;;14.00;84.50;;;;;;6327969;22;20239;-76
2021/08/26 00:18:08;;;;;;;7.53;2.30;;;14.10;84.30;;;;;;6287768;22;20015;-76
2021/08/26 00:20:35;;;;;;;8.32;2.25;;;14.20;84.30;;;;;;6312693;22;20198;-77
2021/08/26 00:23:04;;;;;;;5.97;1.98;;;14.30;83.90;;;;;;6284792;22;20035;-77
2021/08/26 00:25:32;;;;;;;5.93;1.95;;;14.30;83.50;;;;;;6313376;22;20019;-77
2021/08/26 00:27:59;;;;;;;7.45;2.40;;;14.40;83.40;;;;;;6287879;22;20034;-77
2021/08/26 00:30:26;;;;;;;6.65;1.65;;;14.40;83.30;;;;;;6288063;22;20311;-76
2021/08/26 00:32:59;;;;;;;6.72;2.58;;;14.50;83.20;;;;;;6316718;22;20341;-76
2021/08/26 00:35:29;;;;;;;6.50;2.10;;;14.60;83.00;;;;;;6316679;22;20027;-77
2021/08/26 00:37:59;;;;;;;5.78;2.30;;;14.80;82.60;;;;;;6316601;22;20300;-77
2021/08/26 00:40:28;;;;;;;5.50;2.13;;;14.70;82.80;;;;;;6316459;22;20067;-76
2021/08/26 00:43:02;;;;;;;7.63;2.60;;;14.70;82.70;;;;;;6290519;22;20038;-76
2021/08/26 00:45:34;;;;;;;6.55;2.38;;;14.70;82.60;;;;;;6293275;22;20091;-77
2021/08/26 00:48:03;;;;;;;5.57;1.95;;;14.80;82.30;;;;;;6318644;22;20114;-77
2021/08/26 00:50:36;;;;;;;9.82;2.65;;;14.70;82.30;;;;;;6289253;22;20023;-76
2021/08/26 00:53:04;;;;;;;6.82;2.30;;;14.70;82.30;;;;;;6318159;22;20035;-77
2021/08/26 00:55:34;;;;;;;8.70;2.60;;;14.70;82.30;;;;;;6316900;22;20403;-76
2021/08/26 00:58:03;;;;;;;8.15;2.70;;;14.70;82.30;;;;;;6284190;22;20027;-75
2021/08/26 01:00:39;;;;;;;9.07;2.95;;;14.80;82.10;;;;;;6277954;22;20023;-76
2021/08/26 01:03:13;;;;;;;10.07;2.95;;;14.80;82.00;;;;;;6311810;22;20049;-76
2021/08/26 01:05:47;;;;;;;4.35;1.73;;;14.90;82.40;;;;;;6313755;22;20663;-76
2021/08/26 01:08:16;;;;;;;7.70;2.85;;;14.80;82.20;;;;;;6313191;22;20042;-76
2021/08/26 01:10:51;;;;;;;6.25;2.15;;;14.70;82.50;;;;;;6309786;22;20019;-76
2021/08/26 01:13:19;;;;;;;6.90;1.55;;;14.80;82.60;;;;;;6312424;22;20023;-77
2021/08/26 01:16:36;;;;;;;7.75;2.75;;;14.80;82.50;;;;;;6314397;22;20257;-77
2021/08/26 01:19:10;;;;;;;6.82;2.15;;;14.80;82.50;;;;;;6234333;22;20337;-76
2021/08/26 01:21:46;;;;;;;5.65;2.10;;;14.80;82.30;;;;;;449660;22;10021956;-76
2021/08/26 01:24:18;;;;;;;5.72;1.90;;;14.90;82.50;;;;;;6311201;22;20336;-76
2021/08/26 01:26:49;;;;;;;;;;;14.90;82.40;;;;;;6285068;22;20015;-77
2021/08/26 01:29:16;;;;;;;4.45;2.03;;;14.90;82.30;;;;;;6311938;22;19929;-75
2021/08/26 01:31:45;;;;;;;6.20;1.92;;;14.90;82.40;;;;;;6310761;22;20202;-76
2021/08/26 01:34:13;;;;;;;5.50;2.60;;;14.90;82.30;;;;;;6283414;22;20025;-76
2021/08/26 01:36:40;;;;;;;6.38;2.40;;;14.90;82.60;;;;;;6284804;22;20026;-76
2021/08/26 01:39:10;;;;;;;7.47;2.60;;;14.90;82.70;;;;;;6285938;22;20029;-76
2021/08/26 01:41:39;;;;;;;8.07;2.58;;;15.00;82.80;;;;;;6312954;22;20383;-77
2021/08/26 01:44:08;;;;;;;4.80;2.03;;;15.00;82.50;;;;;;6312042;22;20030;-76
2021/08/26 01:46:36;;;;;;;7.32;1.98;;;15.00;82.40;;;;;;6285971;22;20030;-76
2021/08/26 01:49:03;;;;;;;5.03;2.08;;;15.10;82.30;;;;;;6312383;22;20023;-77
2021/08/26 01:51:31;;;;;;;6.60;2.40;;;15.10;81.80;;;;;;6309822;22;20027;-75
2021/08/26 01:54:05;;;;;;;6.13;2.20;;;15.20;81.80;;;;;;6310471;22;20325;-75
2021/08/26 01:56:32;;;;;;;10.43;2.42;;;15.20;81.30;;;;;;6309311;22;20049;-76
2021/08/26 01:58:59;;;;;;;6.20;2.20;;;15.30;80.90;;;;;;6317077;22;20075;-77
2021/08/26 02:01:28;;;;;;;5.00;2.30;;;15.30;80.60;;;;;;6311996;22;20027;-77
2021/08/26 02:03:57;;;;;;;5.95;2.70;;;15.30;80.40;;;;;;6318755;22;20065;-77
2021/08/26 02:06:24;;;;;;;9.18;2.85;;;15.30;80.40;;;;;;6315856;22;20337;-78
2021/08/26 02:08:52;;;;;;;8.82;3.00;;;15.40;80.10;;;;;;6317693;22;20199;-76
2021/08/26 02:11:19;;;;;;;9.88;3.13;;;15.50;79.80;;;;;;6315990;22;20031;-77
2021/08/26 02:13:46;;;;;;;6.72;2.70;;;15.60;79.80;;;;;;6313872;22;20094;-76
2021/08/26 02:16:14;;;;;;;7.03;2.80;;;15.60;79.70;;;;;;6316998;22;20043;-76
2021/08/26 02:18:46;;;;;;;6.43;2.83;;;15.60;79.80;;;;;;6315934;22;20027;-77
2021/08/26 02:21:13;;;;;;;9.50;3.35;;;15.60;79.90;;;;;;6317020;22;20034;-76
2021/08/26 02:23:40;;;;;;;5.15;1.88;;;15.60;80.10;;;;;;6287457;22;20042;-79
2021/08/26 02:26:08;;;;;;;7.72;2.25;;;15.50;80.40;;;;;;6316419;22;20023;-77
2021/08/26 02:28:35;;;;;;;6.75;3.17;;;15.50;81.20;;;;;;6314981;22;20480;-76
2021/08/26 02:31:02;;;;;;;5.80;2.50;;;15.50;81.10;;;;;;6288657;22;20030;-76
2021/08/26 02:33:31;;;;;;;11.48;2.92;;;15.60;80.90;;;;;;6314006;22;20027;-76
2021/08/26 02:36:00;;;;;;;13.30;3.42;;;15.60;80.80;;;;;;6314932;22;20023;-76
2021/08/26 02:38:28;;;;;;;7.55;2.47;;;15.60;80.80;;;;;;6288692;22;20078;-76
2021/08/26 02:40:55;;;;;;;7.68;2.90;;;15.60;81.40;;;;;;6314886;22;20038;-77
2021/08/26 02:43:22;;;;;;;7.05;2.90;;;15.70;81.30;;;;;;6313652;22;20042;-78
2021/08/26 02:45:49;;;;;;;7.40;2.90;;;15.50;81.50;;;;;;6314764;22;20023;-76
2021/08/26 02:48:16;;;;;;;5.60;2.35;;;15.50;82.00;;;;;;6308623;22;20311;-75
2021/08/26 02:50:43;;;;;;;6.95;2.80;;;15.40;82.70;;;;;;6312090;22;20021;-75
2021/08/26 02:53:12;;;;;;;8.48;3.10;;;15.50;82.70;;;;;;6312051;22;20079;-76
2021/08/26 02:55:39;;;;;;;9.93;3.10;;;15.60;83.20;;;;;;6284932;22;20042;-76
2021/08/26 02:58:06;;;;;;;6.75;3.13;;;15.60;82.50;;;;;;6311222;22;20038;-76
2021/08/26 03:00:34;;;;;;;8.80;2.70;;;15.60;82.60;;;;;;6306341;22;20085;-76
2021/08/26 03:03:01;;;;;;;7.57;3.03;;;15.60;82.40;;;;;;6283650;22;20023;-76
2021/08/26 03:05:28;;;;;;;6.63;2.50;;;15.50;83.30;;;;;;6313055;22;20346;-76
2021/08/26 03:07:56;;;;;;;7.10;2.72;;;15.50;83.10;;;;;;6319082;22;20015;-76
2021/08/26 03:10:25;;;;;;;6.97;3.10;;;15.50;83.60;;;;;;6315545;22;20027;-76
2021/08/26 03:12:52;;;;;;;6.55;2.75;;;15.40;83.80;;;;;;6312923;22;20338;-76
2021/08/26 03:15:20;;;;;;;7.43;2.72;;;15.40;84.10;;;;;;6311358;22;20031;-76
2021/08/26 03:17:47;;;;;;;7.55;3.22;;;15.40;84.30;;;;;;6286041;22;20073;-76
2021/08/26 03:20:15;;;;;;;10.70;2.58;;;15.50;83.90;;;;;;6286543;22;20035;-76
2021/08/26 03:22:42;;;;;;;6.05;2.75;;;15.40;84.70;;;;;;6310986;22;20047;-76
2021/08/26 03:25:10;;;;;;;9.02;2.85;;;15.30;84.80;;;;;;6312665;22;20029;-76
2021/08/26 03:27:38;;;;;;;6.45;3.15;;;15.40;84.50;;;;;;6311196;22;20030;-76
2021/08/26 03:30:07;;;;;;;7.30;2.90;;;15.30;85.10;;;;;;6285002;22;20038;-76
2021/08/26 03:32:34;;;;;;;8.20;3.03;;;15.30;85.10;;;;;;6313863;22;20015;-76
2021/08/26 03:35:02;;;;;;;5.85;2.47;;;15.30;85.10;;;;;;6284247;22;20470;-76
2021/08/26 03:37:29;;;;;;;6.35;2.67;;;15.20;85.30;;;;;;6283883;22;20043;-76
2021/08/26 03:39:56;;;;;;;7.55;2.92;;;15.20;85.50;;;;;;6309950;22;20023;-76
2021/08/26 03:42:24;;;;;;;8.13;3.22;;;15.20;85.80;;;;;;6278440;22;20070;-77
2021/08/26 03:44:52;;;;;;;9.68;3.28;;;15.20;85.90;;;;;;6280067;22;20039;-76
2021/08/26 03:47:19;;;;;;;7.18;3.28;;;15.10;85.90;;;;;;6278251;22;20054;-76
2021/08/26 03:49:46;;;;;;;8.50;3.47;;;15.10;86.40;;;;;;6279146;22;20028;-75
2021/08/26 03:52:14;;;;;;;8.75;3.70;;;15.10;86.50;;;;;;6279526;22;20304;-75
2021/08/26 03:54:41;;;;;;;6.97;3.28;;;15.10;86.50;;;;;;6282099;22;20326;-76
2021/08/26 03:57:08;;;;;;;8.30;4.00;;;15.10;86.30;;;;;;6283383;22;20024;-77
2021/08/26 03:59:35;;;;;;;6.57;3.70;;;15.10;86.40;;;;;;6279650;22;20079;-75
2021/08/26 04:02:04;;;;;;;7.13;3.85;;;15.10;86.50;;;;;;6276366;22;20300;-76
2021/08/26 04:04:31;;;;;;;9.00;4.30;;;15.10;86.70;;;;;;6280845;22;20270;-75
2021/08/26 04:06:58;;;;;;;11.10;4.45;;;15.10;86.90;;;;;;6283906;22;20330;-76
2021/08/26 04:09:25;;;;;;;10.35;4.90;;;15.10;87.10;;;;;;6282216;22;20032;-76
2021/08/26 04:11:53;;;;;;;8.43;3.58;;;15.00;87.40;;;;;;6281538;22;20137;-74
2021/08/26 04:14:20;;;;;;;7.80;4.22;;;14.90;87.50;;;;;;6283141;22;20085;-75
2021/08/26 04:16:47;;;;;;;6.82;3.92;;;14.90;87.80;;;;;;6278143;22;20030;-74
2021/08/26 04:19:16;;;;;;;11.70;4.57;;;14.80;87.90;;;;;;6280398;22;20020;-76
2021/08/26 04:21:43;;;;;;;8.75;4.10;;;14.80;88.10;;;;;;6281332;22;20011;-76
2021/08/26 04:24:10;;;;;;;7.53;4.10;;;14.70;88.40;;;;;;6282891;22;20066;-77
2021/08/26 04:26:37;;;;;;;7.97;4.70;;;14.80;88.30;;;;;;6282914;22;20038;-77
2021/08/26 04:29:04;;;;;;;8.02;4.20;;;14.80;88.40;;;;;;6279792;22;20015;-76
2021/08/26 04:31:32;;;;;;;10.55;4.47;;;14.80;88.10;;;;;;6281353;22;20039;-76
2021/08/26 04:33:59;;;;;;;9.15;4.78;;;14.70;88.50;;;;;;6279766;22;20067;-76
2021/08/26 04:36:27;;;;;;;9.15;4.80;;;14.80;88.60;;;;;;6279655;22;20186;-76
2021/08/26 04:38:55;;;;;;;10.77;4.63;;;14.70;88.40;;;;;;6278464;22;20027;-77
2021/08/26 04:41:22;;;;;;;11.88;5.47;;;14.70;88.60;;;;;;6280947;22;20276;-76
2021/08/26 04:43:50;;;;;;;9.38;5.28;;;14.60;88.90;;;;;;6312056;22;20034;-77
2021/08/26 04:46:17;;;;;;;10.93;4.22;;;14.60;89.10;;;;;;6284888;22;20034;-76
2021/08/26 04:48:44;;;;;;;9.02;4.68;;;14.50;89.20;;;;;;6313662;22;20023;-76
2021/08/26 04:51:12;;;;;;;10.95;4.95;;;14.60;89.40;;;;;;6314258;22;20023;-76
2021/08/26 04:53:40;;;;;;;9.45;5.10;;;14.50;89.90;;;;;;6314465;22;20509;-74
2021/08/26 04:56:08;;;;;;;11.20;5.65;;;14.40;89.60;;;;;;6317180;22;20050;-76
2021/08/26 04:58:38;;;;;;;9.40;5.30;;;14.40;90.00;;;;;;6287685;22;20072;-76
2021/08/26 05:01:05;;;;;;;11.90;5.47;;;14.40;90.00;;;;;;6283229;22;20015;-76
2021/08/26 05:03:32;;;;;;;9.65;5.40;;;14.40;89.80;;;;;;6312971;22;20058;-78
2021/08/26 05:05:59;;;;;;;10.85;5.32;;;14.50;89.70;;;;;;6315018;22;20018;-76
2021/08/26 05:08:26;;;;;;;11.68;4.93;;;14.50;89.60;;;;;;6287292;22;20043;-76
2021/08/26 05:10:55;;;;;;;11.52;4.88;;;14.60;89.40;;;;;;6286762;22;20064;-78
2021/08/26 05:13:22;;;;;;;11.02;5.45;;;14.50;89.40;;;;;;6286441;22;20023;-76
2021/08/26 05:15:50;;;;;;;10.35;4.80;;;14.60;89.50;;;;;;6313156;22;20038;-76
2021/08/26 05:18:18;;;;;;;10.52;5.65;;;14.60;89.20;;;;;;6314273;22;20031;-76
2021/08/26 05:20:45;;;;;;;8.73;5.10;;;14.70;89.10;;;;;;6283697;22;20019;-75
2021/08/26 05:23:12;;;;;;;9.45;4.65;;;14.70;88.90;;;;;;6315089;22;20079;-75
2021/08/26 05:25:39;;;;;;;12.40;4.95;;;14.90;89.00;;;;;;6313413;22;20023;-76
2021/08/26 05:28:08;;;;;;;13.68;5.28;;;14.90;88.70;;;;;;6286444;22;20022;-76
2021/08/26 05:30:39;;;;;;;11.25;5.53;;;14.80;88.90;;;;;;6309746;22;20079;-77
2021/08/26 05:33:06;;;;;;;10.90;6.28;;;14.80;88.80;;;;;;6314245;22;20042;-76
2021/08/26 05:35:33;;;;;;;11.88;4.70;;;14.80;89.10;;;;;;6312822;22;20019;-76
2021/08/26 05:38:00;;;;;;;9.68;5.43;;;14.90;89.30;;;;;;6314067;22;20614;-76
2021/08/26 05:40:31;;;;;;;8.18;4.32;;;15.10;88.90;;;;;;6312819;22;20031;-75
2021/08/26 05:42:58;;;;;;;11.63;4.70;;;15.10;88.40;;;;;;6313445;22;20365;-78
2021/08/26 05:45:27;;;;;;;8.60;4.88;;;15.20;88.40;;;;;;6314866;22;20345;-77
2021/08/26 05:47:56;;;;;;;7.50;4.20;;;15.40;88.00;;;;;;6314535;22;20268;-78
2021/08/26 05:50:23;;;;;;;8.70;4.50;;;15.40;87.70;;;;;;6314537;22;20345;-77
2021/08/26 05:52:51;;;;;;;7.65;4.35;;;15.50;87.40;;;;;;6286676;22;20360;-76
2021/08/26 05:55:19;;;;;;;9.95;4.50;;;15.60;87.30;;;;;;6310469;22;20089;-75
2021/08/26 05:57:46;;;;;;;8.65;4.00;;;15.60;87.50;;;;;;6312705;22;20023;-77
2021/08/26 06:00:15;;;;;;;8.90;5.40;;;15.60;87.10;;;;;;6304693;22;20027;-76
2021/08/26 06:02:43;;;;;;;8.20;4.00;;;15.70;86.80;;;;;;6310986;22;20041;-76
2021/08/26 06:05:11;;;;;;;7.13;3.70;;;15.70;86.50;;;;;;6311978;22;20322;-76
2021/08/26 06:07:39;;;;;;;7.75;3.92;;;15.70;86.40;;;;;;6310653;22;20030;-76
2021/08/26 06:10:08;;;;;;;9.27;3.83;;;15.70;86.40;;;;;;6283839;22;20114;-76
2021/08/26 06:12:39;;;;;;;7.20;3.47;;;15.80;85.90;;;;;;6284433;22;20111;-76
2021/08/26 06:15:08;;;;;;;6.97;3.90;;;15.90;85.20;;;;;;6314067;22;20205;-76
2021/08/26 06:17:35;;;;;;;6.90;3.58;;;15.80;85.50;;;;;;6311574;22;20055;-76
2021/08/26 06:20:05;;;;;;;5.22;2.85;;;15.90;85.40;;;;;;6283918;22;20023;-75
2021/08/26 06:22:32;;;;;;;5.70;2.70;;;16.10;84.70;;;;;;6279045;22;20428;-75
2021/08/26 06:25:00;;;;;;;5.53;2.67;;;16.10;82.70;;;;;;6309908;22;20346;-75
2021/08/26 06:27:31;;;;;;;3.75;1.42;;;16.40;82.80;;;;;;6309265;22;20033;-76
2021/08/26 06:29:58;;;;;;;3.47;1.17;;;16.50;77.90;;;;;;6310327;22;20224;-76
2021/08/26 06:32:26;;;;;;;3.08;0.85;;;16.60;77.20;;;;;;6312742;22;20026;-76
2021/08/26 06:34:53;;;;;;;5.55;1.40;;;16.80;77.40;;;;;;6313446;22;20035;-76
2021/08/26 06:37:24;;;;;;;6.85;1.40;;;17.10;77.60;;;;;;6313045;22;20046;-74
2021/08/26 06:39:51;;;;;;;4.18;1.25;;;17.10;76.10;;;;;;6313187;22;20027;-76
2021/08/26 06:42:19;;;;;;;4.68;1.55;;;17.30;76.10;;;;;;6310474;22;20033;-77
2021/08/26 06:44:46;;;;;;;3.08;0.93;;;17.40;73.80;;;;;;6311828;22;20039;-76
2021/08/26 06:47:13;;;;;;;5.05;1.15;;;17.50;74.50;;;;;;6312340;22;20254;-76
2021/08/26 06:49:40;;;;;;;3.90;0.73;;;17.50;72.40;;;;;;6284776;22;20031;-77
2021/08/26 06:52:08;;;;;;;2.72;0.90;;;17.50;71.70;;;;;;6313030;22;20038;-76
2021/08/26 06:54:37;;;;;;;5.15;1.13;;;17.50;71.70;;;;;;6285924;22;20035;-75
2021/08/26 06:57:06;;;;;;;3.35;1.10;;;17.60;71.50;;;;;;6311631;22;20031;-78
2021/08/26 06:59:33;;;;;;;3.28;0.98;;;17.60;71.80;;;;;;6309508;22;20079;-75
2021/08/26 07:02:00;;;;;;;8.80;1.67;;;17.70;69.90;;;;;;6280865;22;20035;-75
2021/08/26 07:04:28;;;;;;;3.60;0.80;;;17.70;69.50;;;;;;6284058;22;20027;-75
2021/08/26 07:06:56;;;;;;;2.72;1.02;;;18.00;69.60;;;;;;6312138;22;20022;-75
2021/08/26 07:09:24;;;;;;;2.78;0.95;;;18.20;69.10;;;;;;6309804;22;20347;-75
2021/08/26 07:11:52;;;;;;;5.63;1.48;;;18.30;67.60;;;;;;6312636;22;20023;-75
2021/08/26 07:14:20;;;;;;;3.60;0.98;;;18.30;66.60;;;;;;6313607;22;20379;-75
2021/08/26 07:16:47;;;;;;;2.88;1.00;;;18.20;65.50;;;;;;6311673;22;20210;-75
2021/08/26 07:19:14;;;;;;;4.22;0.95;;;18.30;67.30;;;;;;6285056;22;20084;-76
2021/08/26 07:21:42;;;;;;;3.20;1.63;;;18.30;65.50;;;;;;6310707;22;20037;-76
2021/08/26 07:24:09;;;;;;;3.00;1.02;;;18.30;64.70;;;;;;6285222;22;20023;-76
2021/08/26 07:26:39;;;;;;;4.53;1.10;;;18.40;66.30;;;;;;6285541;22;20030;-76
2021/08/26 07:29:08;;;;;;;3.88;1.58;;;18.60;64.10;;;;;;6310866;22;20023;-76
2021/08/26 07:31:35;;;;;;;3.05;1.30;;;18.60;64.30;;;;;;6310990;22;20031;-76
2021/08/26 07:34:02;;;;;;;3.42;1.02;;;18.60;64.00;;;;;;6309415;22;20023;-78
2021/08/26 07:36:29;;;;;;;3.63;1.02;;;18.60;63.80;;;;;;6283833;22;20039;-77
2021/08/26 07:38:57;;;;;;;4.93;1.40;;;18.40;63.00;;;;;;6311701;22;20243;-76
2021/08/26 07:41:26;;;;;;;4.78;0.88;;;18.30;65.20;;;;;;6282421;22;20027;-77
2021/08/26 07:43:53;;;;;;;2.45;0.73;;;18.20;63.10;;;;;;6285202;22;20029;-76
2021/08/26 07:46:22;;;;;;;3.85;0.85;;;18.10;63.30;;;;;;6309886;22;20034;-76
2021/08/26 07:48:49;;;;;;;6.13;0.75;;;18.20;63.70;;;;;;6310570;22;20030;-76
2021/08/26 07:51:16;;;;;;;3.83;1.02;;;18.40;64.30;;;;;;6310358;22;20050;-75
2021/08/26 07:53:44;;;;;;;3.13;0.82;;;18.70;64.80;;;;;;6307863;22;20333;-75
2021/08/26 07:56:11;;;;;;;2.88;0.70;;;19.00;62.20;;;;;;6281707;22;20283;-77
2021/08/26 07:58:38;;;;;;;3.17;0.75;;;19.00;60.20;;;;;;6307743;22;20015;-75
2021/08/26 08:01:05;;;;;;;3.83;0.73;;;18.80;61.50;;;;;;6278465;22;20021;-75
2021/08/26 08:03:34;;;;;;;3.53;0.80;;;18.70;63.10;;;;;;6308068;22;20027;-76
2021/08/26 08:06:02;;;;;;;3.10;0.80;;;18.80;62.60;;;;;;6308725;22;20023;-75
2021/08/26 08:08:32;;;;;;;4.10;0.82;;;18.90;64.30;;;;;;6280101;22;20357;-77
2021/08/26 08:10:59;;;;;;;1.95;0.60;;;18.80;59.80;;;;;;6282286;22;20015;-76
2021/08/26 08:13:27;;;;;;;3.78;1.10;;;18.60;60.60;;;;;;6282056;22;20023;-76
2021/08/26 08:15:54;;;;;;;2.17;0.70;;;18.60;60.70;;;;;;6311957;22;20028;-76
2021/08/26 08:18:21;;;;;;;4.00;0.82;;;18.50;60.00;;;;;;6310764;22;20027;-75
2021/08/26 08:20:49;;;;;;;4.32;0.93;;;18.30;60.10;;;;;;6305933;22;20346;-75
2021/08/26 08:23:17;;;;;;;2.63;0.80;;;18.50;60.40;;;;;;6281268;22;20073;-75
2021/08/26 08:25:44;;;;;;;4.93;0.90;;;18.60;59.10;;;;;;6308103;22;20031;-75
2021/08/26 08:28:15;;;;;;;4.22;0.95;;;18.80;58.50;;;;;;6309627;22;20312;-75
2021/08/26 08:30:42;;;;;;;2.80;1.05;;;19.00;59.10;;;;;;6309134;22;20026;-75
2021/08/26 08:33:10;;;;;;;5.55;0.82;;;19.10;61.00;;;;;;6309087;22;20031;-75
2021/08/26 08:35:37;;;;;;;4.10;0.95;;;19.40;58.60;;;;;;6309916;22;20191;-76
2021/08/26 08:38:07;;;;;;;3.55;0.80;;;19.70;58.00;;;;;;6309133;22;20057;-76
2021/08/26 08:40:35;;;;;;;4.97;0.93;;;19.90;57.10;;;;;;6282661;22;20027;-77
2021/08/26 08:43:03;;;;;;;2.08;0.70;;;20.20;58.40;;;;;;6310921;22;20050;-76
2021/08/26 08:45:30;;;;;;;3.00;0.70;;;20.20;56.40;;;;;;6308297;22;20602;-76
2021/08/26 08:47:59;;;;;;;4.90;1.17;;;20.20;56.40;;;;;;6282527;22;20104;-76
2021/08/26 08:50:28;;;;;;;4.85;1.15;;;20.30;55.70;;;;;;6282293;22;20034;-76
2021/08/26 08:52:55;;;;;;;3.87;0.77;;;20.50;55.40;;;;;;6311448;22;20023;-76
2021/08/26 08:55:24;;;;;;;6.65;0.68;;;20.30;55.30;;;;;;6307933;22;20027;-77
2021/08/26 08:57:51;;;;;;;4.63;0.80;;;20.60;55.00;;;;;;6309766;22;20065;-76
2021/08/26 09:00:20;;;;;;;2.53;0.77;;;20.70;54.00;;;;;;6307374;22;20043;-76
2021/08/26 09:02:47;;;;;;;2.73;0.67;;;20.70;52.30;;;;;;6308684;22;20031;-76
2021/08/26 09:05:15;;;;;;;4.28;0.80;;;20.60;54.30;;;;;;6313023;22;20027;-76
2021/08/26 09:07:42;;;;;;;5.22;0.90;;;20.60;53.50;;;;;;6285966;22;20046;-75
2021/08/26 09:10:12;;;;;;;3.78;0.70;;;20.30;55.00;;;;;;6310999;22;20031;-75
2021/08/26 09:12:50;;;;;;;2.75;0.75;;;20.30;55.20;;;;;;6282396;22;20268;-76
2021/08/26 09:15:19;;;;;;;2.13;0.70;;;20.10;56.50;;;;;;6312091;22;20283;-77
2021/08/26 09:17:47;;;;;;;3.30;0.90;;;20.50;55.80;;;;;;6312045;22;20030;-76
2021/08/26 09:20:16;;;;;;;2.88;0.80;;;20.60;54.40;;;;;;6313749;22;20031;-76
2021/08/26 09:22:44;;;;;;;3.47;0.95;;;20.50;54.40;;;;;;6284575;22;20110;-76
2021/08/26 09:25:14;;;;;;;3.42;0.98;;;20.70;53.70;;;;;;6281098;22;20283;-76
2021/08/26 09:27:44;;;;;;;4.15;0.82;;;20.80;55.10;;;;;;6311720;22;20084;-75
2021/08/26 09:30:15;;;;;;;4.68;0.77;;;21.00;53.90;;;;;;6286063;22;20019;-76
2021/08/26 09:32:44;;;;;;;4.25;1.05;;;20.60;52.60;;;;;;6284008;22;20034;-76
2021/08/26 09:35:15;;;;;;;2.35;0.52;;;20.60;55.00;;;;;;6313431;22;20027;-77
2021/08/26 09:37:48;;;;;;;3.53;1.02;;;20.70;53.10;;;;;;6311161;22;20111;-73
2021/08/26 09:40:18;;;;;;;6.05;1.25;;;20.70;53.90;;;;;;6311325;22;20019;-76
2021/08/26 09:42:54;;;;;;;2.63;0.57;;;20.70;53.40;;;;;;6311653;22;20256;-76
2021/08/26 09:45:25;;;;;;;2.60;0.80;;;20.70;54.40;;;;;;6308784;22;20855;-76
2021/08/26 09:48:03;;;;;;;2.63;0.95;;;20.90;54.30;;;;;;6313332;22;20210;-76
2021/08/26 09:50:52;;;;;;;2.15;0.50;;;20.90;53.90;;;;;;6313967;22;20042;-76
2021/08/26 09:53:22;;;;;;;2.90;1.50;;;20.80;55.60;;;;;;6312790;22;20180;-75
2021/08/26 09:56:01;;;;;;;2.60;1.08;;;20.80;53.90;;;;;;6283314;22;20039;-75
2021/08/26 09:58:32;;;;;;;2.88;0.93;;;20.80;55.10;;;;;;6284658;22;20058;-74
2021/08/26 10:01:14;;;;;;;2.53;0.70;;;20.80;54.10;;;;;;6308822;22;20019;-76
2021/08/26 10:03:41;;;;;;;2.90;0.80;;;20.90;53.70;;;;;;6286366;22;20402;-73
2021/08/26 10:06:11;;;;;;;2.63;0.68;;;20.90;54.40;;;;;;6317778;22;20031;-76
2021/08/26 10:08:41;;;;;;;1.38;0.77;;;21.10;52.50;;;;;;6250059;22;20045;-75
2021/08/26 10:11:09;;;;;;;;;;;21.20;51.80;;;;;;6316583;22;20323;-76
2021/08/26 10:13:37;;;;;;;0.88;0.28;;;21.20;52.90;;;;;;6288571;22;19929;-76
2021/08/26 10:16:04;;;;;;;3.10;0.85;;;21.50;51.50;;;;;;6312550;22;20046;-76
2021/08/26 10:18:35;;;;;;;2.17;0.50;;;21.60;51.50;;;;;;6312499;22;20027;-75
2021/08/26 10:21:03;;;;;;;3.90;1.00;;;21.60;51.40;;;;;;6285861;22;20023;-76
2021/08/26 10:23:31;;;;;;;1.60;0.52;;;21.60;51.60;;;;;;6284393;22;20102;-76
2021/08/26 10:26:02;;;;;;;1.65;0.45;;;21.50;51.30;;;;;;6309306;22;20023;-75
2021/08/26 10:28:32;;;;;;;2.30;0.82;;;21.70;52.40;;;;;;6285766;22;20065;-76
2021/08/26 10:30:59;;;;;;;2.55;0.60;;;21.90;49.90;;;;;;6285475;22;20022;-75
2021/08/26 10:33:29;;;;;;;2.30;0.65;;;21.70;50.90;;;;;;6310003;22;20238;-76
2021/08/26 10:36:04;;;;;;;3.40;0.63;;;21.60;51.20;;;;;;6273989;22;20346;-76
2021/08/26 10:38:32;;;;;;;3.55;1.02;;;21.90;50.90;;;;;;6311205;22;20038;-76
2021/08/26 10:41:21;;;;;;;;;;;22.00;50.10;;;;;;6289546;22;20098;-77
2021/08/26 10:43:57;;;;;;;2.65;0.93;;;22.40;49.80;;;;;;6313279;22;20121;-78
2021/08/26 10:46:57;;;;;;;3.42;0.80;;;23.50;48.20;;;;;;6315770;22;20027;-76
2021/08/26 10:49:26;;;;;;;2.33;0.63;;;26.40;42.90;;;;;;6282466;22;20074;-76
2021/08/26 10:51:54;;;;;;;4.43;1.00;;;26.30;42.00;;;;;;6309779;22;20025;-75
2021/08/26 10:54:27;;;;;;;3.40;1.02;;;25.90;41.80;;;;;;6283340;22;20034;-76
2021/08/26 10:56:55;;;;;;;3.28;0.70;;;25.10;41.70;;;;;;6282830;22;20078;-76
2021/08/26 10:59:31;;;;;;;2.17;0.68;;;24.30;44.00;;;;;;6310479;22;20050;-77
2021/08/26 11:01:59;;;;;;;2.17;0.60;;;24.20;43.40;;;;;;6304951;22;20034;-76
2021/08/26 11:04:33;;;;;;;2.78;0.77;;;23.60;45.20;;;;;;6308229;22;20385;-76
2021/08/26 11:07:04;;;;;;;5.60;0.70;;;24.20;45.50;;;;;;6282216;22;20344;-76
2021/08/26 11:09:36;;;;;;;3.83;0.80;;;24.90;44.00;;;;;;6282672;22;20034;-74
2021/08/26 11:12:24;;;;;;;2.00;0.70;;;28.10;38.30;;;;;;6286701;22;20038;-75
2021/08/26 11:14:52;;;;;;;2.35;0.95;;;29.40;35.60;;;;;;6302802;22;20334;-75
2021/08/26 11:17:34;;;;;;;1.98;0.60;;;30.50;33.50;;;;;;6311345;22;20033;-75
2021/08/26 11:20:30;;;;;;;1.40;0.60;;;31.50;32.20;;;;;;6283365;22;20035;-75
2021/08/26 11:23:14;;;;;;;1.50;0.55;;;32.50;30.10;;;;;;6307517;22;20068;-75
2021/08/26 11:25:41;;;;;;;4.30;0.82;;;32.50;28.20;;;;;;6311775;22;20068;-75
2021/08/26 11:28:32;;;;;;;4.03;0.80;;;32.90;27.70;;;;;;6307798;22;20066;-74
2021/08/26 11:31:20;;;;;;;3.92;0.77;;;31.30;29.90;;;;;;6302424;22;20061;-76
2021/08/26 11:33:52;;;;;;;2.33;0.90;;;29.10;34.10;;;;;;6284363;22;20030;-75
2021/08/26 11:36:19;;;;;;;4.30;0.90;;;26.90;37.50;;;;;;6308428;22;20023;-75
2021/08/26 11:38:51;;;;;;;2.78;1.25;;;26.00;38.50;;;;;;6312799;22;20187;-75
2021/08/26 11:41:19;;;;;;;3.28;1.02;;;25.60;40.10;;;;;;6311712;22;20033;-76
2021/08/26 11:43:47;;;;;;;4.38;1.02;;;25.40;41.60;;;;;;6313303;22;20394;-76
2021/08/26 11:46:17;;;;;;;5.57;1.00;;;27.00;37.70;;;;;;6313377;22;20019;-76
2021/08/26 11:48:52;;;;;;;2.20;1.00;;;26.10;39.60;;;;;;6284523;22;20023;-75
2021/08/26 11:51:30;;;;;;;2.45;0.73;;;26.30;39.30;;;;;;6312976;22;20043;-75
2021/08/26 11:54:16;;;;;;;4.97;1.00;;;25.60;40.50;;;;;;6313195;22;20369;-75
2021/08/26 11:56:49;;;;;;;6.43;0.90;;;24.70;41.40;;;;;;6284884;22;20190;-77
2021/08/26 11:59:24;;;;;;;5.10;0.90;;;23.80;43.30;;;;;;6286294;22;20031;-76
2021/08/26 12:02:12;;;;;;;4.00;0.88;;;23.10;45.70;;;;;;6310048;22;20039;-77
2021/08/26 12:04:39;;;;;;;2.58;1.05;;;23.90;44.60;;;;;;6312506;22;20016;-77
2021/08/26 12:07:06;;;;;;;7.13;1.00;;;23.90;44.50;;;;;;6314716;22;20015;-77
2021/08/26 12:09:35;;;;;;;4.05;0.70;;;25.80;40.40;;;;;;6309265;22;20175;-75
2021/08/26 12:12:11;;;;;;;2.45;0.88;;;27.00;39.40;;;;;;6285901;22;20023;-77
2021/08/26 12:14:38;;;;;;;4.28;1.02;;;28.00;35.00;;;;;;6285804;22;20342;-74
2021/08/26 12:17:18;;;;;;;2.42;0.82;;;27.80;37.40;;;;;;6285939;22;20113;-76
2021/08/26 12:19:47;;;;;;;2.47;0.70;;;27.30;38.10;;;;;;6313955;22;20027;-75
2021/08/26 12:22:16;;;;;;;;;;;27.30;35.90;;;;;;6285809;22;20326;-76
2021/08/26 12:25:02;;;;;;;2.22;0.90;;;26.60;35.80;;;;;;6287310;22;20229;-75
2021/08/26 12:27:32;;;;;;;2.40;0.77;;;25.40;38.20;;;;;;6312235;22;20079;-75
2021/08/26 12:30:00;;;;;;;5.95;1.25;;;24.10;40.30;;;;;;6288546;22;20027;-75
2021/08/26 12:32:38;;;;;;;1.70;0.60;;;23.80;41.70;;;;;;6270588;22;20057;-73
2021/08/26 12:35:23;;;;;;;2.33;0.52;;;25.90;37.90;;;;;;6293972;22;20015;-75
2021/08/26 12:37:59;;;;;;;2.83;0.50;;;26.60;36.70;;;;;;6282025;22;20026;-76
2021/08/26 12:40:32;;;;;;;3.85;0.90;;;26.00;37.00;;;;;;6285553;22;20049;-77
2021/08/26 12:43:05;;;;;;;2.97;0.80;;;25.60;38.60;;;;;;6305633;22;20019;-77
2021/08/26 12:45:35;;;;;;;1.80;0.50;;;25.70;37.60;;;;;;6316248;22;20023;-75
2021/08/26 12:48:22;;;;;;;3.90;1.20;;;25.60;38.30;;;;;;6312867;22;20023;-76
2021/08/26 12:51:04;;;;;;;1.08;0.57;;;26.00;37.80;;;;;;6308840;22;20078;-74
2021/08/26 12:53:31;;;;;;;2.08;0.60;;;25.50;39.30;;;;;;6284241;22;20019;-76
2021/08/26 12:56:01;;;;;;;1.95;0.70;;;25.00;39.60;;;;;;6313260;22;20038;-74
2021/08/26 12:58:34;;;;;;;3.00;0.70;;;24.70;41.20;;;;;;6284090;22;20027;-75
2021/08/26 13:01:17;;;;;;;3.20;0.50;;;24.80;40.50;;;;;;6279521;22;20039;-76
2021/08/26 13:03:47;;;;;;;3.67;0.90;;;25.30;40.10;;;;;;6311570;22;20053;-75